Time;durP1;ratioP1;P1;durP2;ratioP2;P2;SDS_P1;SDS_P2;PMS_P1;PMS_P2;Temp;Humidity;BMP_temperature;BMP_pressure;BME280_temperature;BME280_humidity;BME280_pressure;Samples;Min_cycle;Max_cycle;Signal;HPM_P1;HPM_P2
2021/09/25 00:00:27;;;;;;;9.10;5.28;;;17.20;99.90;;;;;;2064127;28;20379;-70
2021/09/25 00:01:28;;;;;;;6.53;5.20;;;17.30;99.90;;;;;;2064544;28;20379;-70
2021/09/25 00:02:28;;;;;;;7.00;5.10;;;17.20;99.90;;;;;;2063569;28;20386;-70
2021/09/25 00:03:29;;;;;;;6.78;5.85;;;17.20;99.90;;;;;;2064368;28;20022;-70
2021/09/25 00:04:29;;;;;;;6.65;5.18;;;17.20;99.90;;;;;;2064245;28;20801;-70
2021/09/25 00:05:38;;;;;;;9.40;5.80;;;17.20;99.90;;;;;;2071588;28;20033;-70
2021/09/25 00:06:38;;;;;;;6.40;5.18;;;17.20;99.90;;;;;;2067042;28;20136;-70
2021/09/25 00:07:39;;;;;;;8.18;6.10;;;17.20;99.90;;;;;;2071232;28;20108;-70
2021/09/25 00:08:39;;;;;;;10.40;5.57;;;17.20;99.90;;;;;;2069771;28;20494;-70
2021/09/25 00:09:40;;;;;;;6.50;4.97;;;17.20;99.90;;;;;;2072596;28;20100;-70
2021/09/25 00:10:41;;;;;;;9.82;6.03;;;17.20;99.90;;;;;;2065980;28;20093;-70
2021/09/25 00:11:42;;;;;;;7.63;6.00;;;17.10;99.90;;;;;;2069763;28;20030;-70
2021/09/25 00:12:43;;;;;;;6.80;6.10;;;17.20;99.90;;;;;;2064035;28;20042;-70
2021/09/25 00:13:44;;;;;;;7.43;5.95;;;17.10;99.90;;;;;;2064363;28;20030;-70
2021/09/25 00:14:44;;;;;;;8.45;6.82;;;17.10;99.90;;;;;;2063984;28;20478;-70
2021/09/25 00:15:45;;;;;;;8.05;6.07;;;17.10;99.90;;;;;;2064468;28;20036;-70
2021/09/25 00:16:45;;;;;;;5.70;5.20;;;17.10;99.90;;;;;;2064142;28;20723;-70
2021/09/25 00:17:47;;;;;;;8.02;6.75;;;17.10;99.90;;;;;;2064349;28;20461;-70
2021/09/25 00:18:47;;;;;;;8.20;7.20;;;17.10;99.90;;;;;;2066016;28;20091;-70
2021/09/25 00:19:48;;;;;;;6.28;5.55;;;17.10;99.90;;;;;;2072235;28;20038;-70
2021/09/25 00:20:48;;;;;;;8.10;6.70;;;17.00;99.90;;;;;;2072311;28;20018;-70
2021/09/25 00:21:49;;;;;;;8.65;6.70;;;17.00;99.90;;;;;;2066617;28;20613;-70
2021/09/25 00:22:49;;;;;;;9.48;6.78;;;17.00;99.90;;;;;;2064048;28;20030;-70
2021/09/25 00:23:52;;;;;;;8.70;7.10;;;17.00;99.90;;;;;;2064423;28;20113;-70
2021/09/25 00:24:52;;;;;;;8.13;6.90;;;17.00;99.90;;;;;;2063883;28;20030;-70
2021/09/25 00:25:53;;;;;;;11.10;7.20;;;17.00;99.90;;;;;;2064296;28;20489;-70
2021/09/25 00:26:53;;;;;;;9.32;6.55;;;17.00;99.90;;;;;;2063803;28;20030;-70
2021/09/25 00:27:54;;;;;;;7.78;6.60;;;17.00;99.90;;;;;;2064093;28;20034;-70
2021/09/25 00:28:55;;;;;;;9.75;7.82;;;17.00;99.90;;;;;;2063902;28;20026;-70
2021/09/25 00:29:55;;;;;;;8.38;7.57;;;17.00;99.90;;;;;;2063728;28;20668;-70
2021/09/25 00:30:56;;;;;;;13.30;8.15;;;17.00;99.90;;;;;;2063893;28;20081;-70
2021/09/25 00:31:56;;;;;;;8.32;7.20;;;17.00;99.90;;;;;;2064350;28;20081;-70
2021/09/25 00:32:57;;;;;;;8.07;7.35;;;17.00;99.90;;;;;;2063990;28;20149;-70
2021/09/25 00:33:57;;;;;;;8.88;7.85;;;17.00;99.90;;;;;;2065808;28;20557;-70
2021/09/25 00:34:58;;;;;;;8.35;7.43;;;16.90;99.90;;;;;;2063411;28;20030;-70
2021/09/25 00:35:59;;;;;;;10.45;8.43;;;16.90;99.90;;;;;;2063933;28;20026;-70
2021/09/25 00:36:59;;;;;;;9.10;7.40;;;16.90;99.90;;;;;;2063857;28;20026;-70
2021/09/25 00:38:00;;;;;;;9.32;8.32;;;16.90;99.90;;;;;;2063803;28;20509;-70
2021/09/25 00:39:00;;;;;;;11.35;7.45;;;16.90;99.90;;;;;;2062826;28;20018;-70
2021/09/25 00:40:01;;;;;;;7.20;6.00;;;16.90;99.90;;;;;;2063054;28;20033;-70
2021/09/25 00:41:01;;;;;;;8.95;7.82;;;16.90;99.90;;;;;;2063880;28;20379;-70
2021/09/25 00:42:02;;;;;;;8.07;7.18;;;16.90;99.90;;;;;;2063918;28;20026;-70
2021/09/25 00:43:03;;;;;;;8.35;7.50;;;16.90;99.90;;;;;;2064041;28;20034;-70
2021/09/25 00:44:04;;;;;;;8.13;6.47;;;16.90;99.90;;;;;;2064053;28;20561;-70
2021/09/25 00:45:07;;;;;;;8.95;7.60;;;16.90;99.90;;;;;;2063906;28;20037;-70
2021/09/25 00:46:07;;;;;;;8.13;6.65;;;16.90;99.90;;;;;;2063835;28;20018;-70
2021/09/25 00:47:08;;;;;;;7.03;6.32;;;16.90;99.90;;;;;;2064393;28;20023;-70
2021/09/25 00:48:08;;;;;;;8.00;6.72;;;16.90;99.90;;;;;;2071540;28;20068;-70
2021/09/25 00:49:09;;;;;;;6.53;5.90;;;16.90;99.90;;;;;;2072067;28;20025;-70
2021/09/25 00:50:10;;;;;;;7.50;6.80;;;16.90;99.90;;;;;;2071771;28;20029;-70
2021/09/25 00:51:10;;;;;;;7.05;6.18;;;16.90;99.90;;;;;;2072283;28;20022;-70
2021/09/25 00:52:11;;;;;;;7.80;7.00;;;16.90;99.90;;;;;;2072020;28;20020;-70
2021/09/25 00:53:11;;;;;;;9.75;7.00;;;16.80;99.90;;;;;;2072207;28;20477;-70
2021/09/25 00:54:12;;;;;;;5.97;5.38;;;16.90;99.90;;;;;;2072027;28;20028;-70
2021/09/25 00:55:13;;;;;;;8.10;6.60;;;16.80;99.90;;;;;;2072060;28;20351;-70
2021/09/25 00:56:13;;;;;;;7.57;6.78;;;16.90;99.90;;;;;;2071902;28;20022;-70
2021/09/25 00:57:14;;;;;;;7.82;6.80;;;16.80;99.90;;;;;;2068622;28;20022;-71
2021/09/25 00:58:17;;;;;;;9.88;7.30;;;16.80;99.90;;;;;;2063229;28;20030;-70
2021/09/25 00:59:19;;;;;;;8.00;6.85;;;16.80;99.90;;;;;;2063909;28;20030;-70
2021/09/25 01:00:19;;;;;;;8.38;6.50;;;16.80;99.90;;;;;;2064434;28;20018;-70
2021/09/25 01:01:20;;;;;;;7.65;6.75;;;16.80;99.90;;;;;;2061893;28;20026;-70
2021/09/25 01:02:21;;;;;;;6.00;5.50;;;16.80;99.90;;;;;;2068740;28;20355;-70
2021/09/25 01:03:22;;;;;;;7.68;6.60;;;16.80;99.90;;;;;;2070956;28;20022;-70
2021/09/25 01:04:22;;;;;;;7.70;5.75;;;16.80;99.90;;;;;;2067408;28;20029;-70
2021/09/25 01:05:24;;;;;;;7.90;6.60;;;16.80;99.90;;;;;;2067923;28;20034;-70
2021/09/25 01:06:24;;;;;;;7.10;6.35;;;16.80;99.90;;;;;;2063626;28;20030;-70
2021/09/25 01:07:25;;;;;;;8.90;7.03;;;16.80;99.90;;;;;;2063543;28;20114;-71
2021/09/25 01:08:25;;;;;;;8.02;6.50;;;16.80;99.90;;;;;;2063166;28;20530;-70
2021/09/25 01:09:26;;;;;;;7.43;6.25;;;16.80;99.90;;;;;;2063659;28;20049;-70
2021/09/25 01:10:27;;;;;;;8.18;6.05;;;16.80;99.90;;;;;;2065355;28;20089;-70
2021/09/25 01:11:28;;;;;;;7.25;6.55;;;16.80;99.90;;;;;;2071577;28;20021;-70
2021/09/25 01:12:28;;;;;;;8.63;6.95;;;16.70;99.90;;;;;;2070966;28;20034;-70
2021/09/25 01:13:30;;;;;;;9.10;6.68;;;16.70;99.90;;;;;;2067505;28;20109;-70
2021/09/25 01:14:31;;;;;;;9.13;7.78;;;16.70;99.90;;;;;;2063943;28;20117;-70
2021/09/25 01:15:32;;;;;;;7.95;6.00;;;16.70;99.90;;;;;;2064000;28;20022;-70
2021/09/25 01:16:32;;;;;;;7.35;6.63;;;16.70;99.90;;;;;;2069689;28;20165;-70
2021/09/25 01:17:33;;;;;;;6.72;6.00;;;16.70;99.90;;;;;;2071505;28;20029;-70
2021/09/25 01:18:34;;;;;;;8.63;7.68;;;16.70;99.90;;;;;;2062251;28;20029;-70
2021/09/25 01:19:35;;;;;;;10.95;7.70;;;16.70;99.90;;;;;;2061891;28;20124;-70
2021/09/25 01:20:36;;;;;;;6.82;5.93;;;16.70;99.90;;;;;;2061645;28;20041;-70
2021/09/25 01:21:36;;;;;;;8.05;7.25;;;16.70;99.90;;;;;;2062290;28;20033;-70
2021/09/25 01:22:37;;;;;;;10.55;7.82;;;16.70;99.90;;;;;;2062117;28;20030;-70
2021/09/25 01:23:39;;;;;;;11.13;8.07;;;16.70;99.90;;;;;;2063460;28;20022;-70
2021/09/25 01:24:39;;;;;;;8.70;7.80;;;16.70;99.90;;;;;;2063740;28;20061;-70
2021/09/25 01:25:40;;;;;;;12.90;8.38;;;16.70;99.90;;;;;;2063760;28;20042;-70
2021/09/25 01:26:40;;;;;;;7.80;7.00;;;16.70;99.90;;;;;;2063799;28;20040;-70
2021/09/25 01:27:42;;;;;;;9.20;6.82;;;16.70;99.90;;;;;;2063585;28;20029;-70
2021/09/25 01:28:43;;;;;;;12.60;8.95;;;16.60;99.90;;;;;;2063206;28;20258;-70
2021/09/25 01:29:43;;;;;;;8.23;7.38;;;16.60;99.90;;;;;;2065093;28;20121;-70
2021/09/25 01:30:44;;;;;;;9.05;7.00;;;16.60;99.90;;;;;;2071712;28;20034;-70
2021/09/25 01:31:45;;;;;;;7.22;6.47;;;16.60;99.90;;;;;;2071618;28;20026;-70
2021/09/25 01:32:48;;;;;;;8.35;7.40;;;16.60;99.90;;;;;;2069391;28;20040;-70
2021/09/25 01:33:51;;;;;;;7.53;5.55;;;16.60;99.90;;;;;;2063454;28;20026;-70
2021/09/25 01:34:51;;;;;;;7.75;5.93;;;16.60;99.90;;;;;;2070914;28;20173;-70
2021/09/25 01:35:52;;;;;;;6.43;5.22;;;16.60;99.90;;;;;;2070623;28;20520;-70
2021/09/25 01:36:53;;;;;;;9.10;6.47;;;16.60;99.90;;;;;;2063797;28;20033;-70
2021/09/25 01:37:55;;;;;;;7.72;6.30;;;16.60;99.90;;;;;;2063705;28;20382;-70
2021/09/25 01:38:56;;;;;;;9.20;6.90;;;16.60;99.90;;;;;;2063052;28;20022;-70
2021/09/25 01:39:56;;;;;;;8.77;6.78;;;16.60;99.90;;;;;;2063651;28;20030;-70
2021/09/25 01:40:57;;;;;;;9.00;6.28;;;16.50;99.90;;;;;;2063666;28;20030;-70
2021/09/25 01:41:59;;;;;;;8.02;6.55;;;16.50;99.90;;;;;;2063467;28;20027;-70
2021/09/25 01:42:59;;;;;;;8.50;6.15;;;16.50;99.90;;;;;;2063405;28;20027;-70
2021/09/25 01:44:00;;;;;;;7.10;6.40;;;16.50;99.90;;;;;;2068338;28;20022;-70
2021/09/25 01:45:01;;;;;;;9.10;6.57;;;16.50;99.90;;;;;;2071941;28;20030;-70
2021/09/25 01:46:02;;;;;;;7.53;5.75;;;16.50;99.90;;;;;;2067591;28;20611;-70
2021/09/25 01:47:03;;;;;;;8.90;7.75;;;16.50;99.90;;;;;;2063636;28;20030;-70
2021/09/25 01:48:04;;;;;;;8.40;6.95;;;16.50;99.90;;;;;;2070692;28;20029;-70
2021/09/25 01:49:05;;;;;;;9.70;8.07;;;16.50;99.90;;;;;;2071317;28;20049;-70
2021/09/25 01:50:08;;;;;;;12.40;8.63;;;16.50;99.90;;;;;;2071237;28;20022;-70
2021/09/25 01:51:09;;;;;;;10.50;7.43;;;16.40;99.90;;;;;;2071498;28;20030;-70
2021/09/25 01:52:10;;;;;;;10.02;8.10;;;16.40;99.90;;;;;;2071837;28;20458;-70
2021/09/25 01:53:10;;;;;;;10.15;7.60;;;16.40;99.90;;;;;;2071671;28;20097;-70
2021/09/25 01:54:12;;;;;;;8.60;7.72;;;16.40;99.90;;;;;;2071623;28;20030;-70
2021/09/25 01:55:12;;;;;;;10.40;8.40;;;16.40;99.90;;;;;;2071451;28;20356;-70
2021/09/25 01:56:15;;;;;;;8.93;7.30;;;16.40;99.90;;;;;;2071753;28;20160;-70
2021/09/25 01:57:15;;;;;;;8.95;7.15;;;16.40;99.90;;;;;;2071201;28;20390;-70
2021/09/25 01:58:16;;;;;;;10.10;7.43;;;16.40;99.90;;;;;;2070861;28;20026;-70
2021/09/25 01:59:16;;;;;;;7.88;7.07;;;16.40;99.90;;;;;;2066991;28;20092;-70
2021/09/25 02:00:17;;;;;;;7.47;5.95;;;16.40;99.90;;;;;;2069048;28;20097;-70
2021/09/25 02:01:17;;;;;;;8.13;6.70;;;16.40;99.90;;;;;;2066457;28;20029;-70
2021/09/25 02:02:18;;;;;;;9.23;7.70;;;16.40;99.90;;;;;;2069571;28;20462;-70
2021/09/25 02:03:19;;;;;;;8.98;7.53;;;16.40;99.90;;;;;;2071309;28;20072;-70
2021/09/25 02:04:20;;;;;;;10.27;7.50;;;16.40;99.90;;;;;;2062652;28;20019;-70
2021/09/25 02:05:21;;;;;;;12.23;7.97;;;16.40;99.90;;;;;;2062619;28;20744;-70
2021/09/25 02:06:22;;;;;;;9.48;8.05;;;16.40;99.90;;;;;;2063665;28;20072;-70
2021/09/25 02:07:23;;;;;;;9.65;7.10;;;16.40;99.90;;;;;;2063363;28;20034;-70
2021/09/25 02:08:23;;;;;;;8.82;7.40;;;16.40;99.90;;;;;;2062786;28;20474;-70
2021/09/25 02:09:24;;;;;;;10.98;8.02;;;16.40;99.90;;;;;;2063238;28;20107;-70
2021/09/25 02:10:24;;;;;;;10.30;7.35;;;16.40;99.90;;;;;;2063320;28;20383;-70
2021/09/25 02:11:25;;;;;;;9.15;7.03;;;16.40;99.90;;;;;;2066293;28;20153;-70
2021/09/25 02:12:26;;;;;;;7.95;7.03;;;16.30;99.90;;;;;;2063596;28;20085;-70
2021/09/25 02:13:27;;;;;;;7.50;6.65;;;16.40;99.90;;;;;;2066596;28;20038;-70
2021/09/25 02:14:27;;;;;;;8.18;6.43;;;16.40;99.90;;;;;;2063474;28;20022;-70
2021/09/25 02:15:30;;;;;;;8.07;6.45;;;16.40;99.90;;;;;;2063113;28;20061;-70
2021/09/25 02:16:30;;;;;;;8.95;6.75;;;16.40;99.90;;;;;;2063119;28;20029;-70
2021/09/25 02:17:31;;;;;;;7.97;6.38;;;16.40;99.90;;;;;;2063522;28;20033;-70
2021/09/25 02:18:31;;;;;;;9.55;7.05;;;16.40;99.90;;;;;;2062942;28;20027;-70
2021/09/25 02:19:32;;;;;;;8.15;6.70;;;16.40;99.90;;;;;;2063238;28;20030;-70
2021/09/25 02:20:33;;;;;;;8.30;5.75;;;16.40;99.90;;;;;;2063314;28;20057;-70
2021/09/25 02:21:33;;;;;;;10.50;6.70;;;16.40;99.90;;;;;;2067196;28;20548;-70
2021/09/25 02:22:34;;;;;;;8.00;6.78;;;16.40;99.90;;;;;;2071298;28;20029;-70
2021/09/25 02:23:35;;;;;;;8.73;6.50;;;16.40;99.90;;;;;;2064954;28;20027;-70
2021/09/25 02:24:36;;;;;;;9.00;6.38;;;16.40;99.90;;;;;;2063457;28;20030;-70
2021/09/25 02:25:36;;;;;;;7.82;6.78;;;16.50;99.90;;;;;;2063761;28;20423;-70
2021/09/25 02:26:37;;;;;;;8.32;6.75;;;16.50;99.90;;;;;;2063137;28;20022;-70
2021/09/25 02:27:40;;;;;;;6.78;5.95;;;16.40;99.90;;;;;;2063548;28;20022;-70
2021/09/25 02:28:41;;;;;;;7.55;5.97;;;16.50;99.90;;;;;;2062651;28;20038;-70
2021/09/25 02:29:42;;;;;;;7.15;6.40;;;16.50;99.90;;;;;;2066481;28;20042;-70
2021/09/25 02:30:42;;;;;;;7.25;6.55;;;16.50;99.90;;;;;;2078926;28;20025;-70
2021/09/25 02:31:43;;;;;;;6.95;6.18;;;16.50;99.90;;;;;;2074041;28;20084;-70
2021/09/25 02:32:44;;;;;;;6.85;5.70;;;16.50;99.90;;;;;;2063187;28;20033;-70
2021/09/25 02:33:46;;;;;;;8.32;6.03;;;16.50;99.90;;;;;;2063720;28;20041;-70
2021/09/25 02:34:46;;;;;;;9.25;6.07;;;16.50;99.90;;;;;;2064098;28;20096;-70
2021/09/25 02:35:47;;;;;;;7.40;6.30;;;16.50;99.90;;;;;;2064949;28;20030;-70
2021/09/25 02:36:48;;;;;;;8.98;6.22;;;16.60;99.90;;;;;;2064193;28;20125;-70
2021/09/25 02:37:50;;;;;;;7.50;6.05;;;16.50;99.90;;;;;;2064176;28;20023;-70
2021/09/25 02:38:50;;;;;;;7.28;6.30;;;16.60;99.90;;;;;;2063742;28;20110;-70
2021/09/25 02:39:51;;;;;;;8.38;6.53;;;16.60;99.90;;;;;;2064509;28;20057;-70
2021/09/25 02:40:52;;;;;;;8.18;6.00;;;16.50;99.90;;;;;;2065274;28;20034;-70
2021/09/25 02:41:53;;;;;;;7.07;6.20;;;16.60;99.90;;;;;;2070944;28;20022;-70
2021/09/25 02:42:54;;;;;;;10.07;6.57;;;16.60;99.90;;;;;;2080566;28;20029;-70
2021/09/25 02:43:55;;;;;;;6.72;5.90;;;16.60;99.90;;;;;;2080183;28;20025;-70
2021/09/25 02:44:55;;;;;;;8.98;6.70;;;16.60;99.90;;;;;;2064934;28;20025;-70
2021/09/25 02:45:56;;;;;;;8.88;6.90;;;16.60;99.90;;;;;;2064969;28;20113;-69
2021/09/25 02:46:57;;;;;;;8.25;6.05;;;16.60;99.90;;;;;;2064906;28;20449;-70
2021/09/25 02:47:58;;;;;;;7.32;5.40;;;16.60;99.90;;;;;;2064701;28;20109;-70
2021/09/25 02:48:58;;;;;;;7.40;5.97;;;16.60;99.90;;;;;;2068775;28;20060;-70
2021/09/25 02:49:59;;;;;;;7.45;5.75;;;16.60;99.90;;;;;;2080473;28;20521;-70
2021/09/25 02:50:59;;;;;;;8.27;6.47;;;16.60;99.90;;;;;;2070034;28;20022;-70
2021/09/25 02:52:00;;;;;;;8.38;6.15;;;16.60;99.90;;;;;;2078908;28;20107;-70
2021/09/25 02:53:01;;;;;;;7.25;6.40;;;16.60;99.90;;;;;;2080658;28;20026;-70
2021/09/25 02:54:01;;;;;;;7.72;5.60;;;16.70;99.90;;;;;;2069369;28;20402;-70
2021/09/25 02:55:03;;;;;;;7.35;5.93;;;16.60;99.90;;;;;;2064947;28;20034;-70
2021/09/25 02:56:03;;;;;;;7.78;5.82;;;16.60;99.90;;;;;;2063982;28;20038;-70
2021/09/25 02:57:04;;;;;;;7.50;6.20;;;16.60;99.90;;;;;;2064320;28;20033;-70
2021/09/25 02:58:05;;;;;;;7.30;5.93;;;16.70;99.90;;;;;;2064283;28;20058;-70
2021/09/25 02:59:05;;;;;;;8.13;5.93;;;16.70;99.90;;;;;;2069825;28;20026;-70
2021/09/25 03:00:09;;;;;;;9.35;6.53;;;16.70;99.90;;;;;;2072839;28;20030;-70
2021/09/25 03:01:10;;;;;;;8.13;5.63;;;16.70;99.90;;;;;;2072744;28;20033;-70
2021/09/25 03:02:10;;;;;;;7.70;5.53;;;16.70;99.90;;;;;;2071325;28;20050;-70
2021/09/25 03:03:11;;;;;;;6.78;5.90;;;16.70;99.90;;;;;;2072295;28;20033;-70
2021/09/25 03:04:12;;;;;;;6.80;6.10;;;16.70;99.90;;;;;;2068081;28;20018;-70
2021/09/25 03:05:13;;;;;;;6.68;5.85;;;16.70;99.90;;;;;;2070830;28;20033;-70
2021/09/25 03:06:13;;;;;;;7.78;6.47;;;16.70;99.90;;;;;;2064508;28;20034;-70
2021/09/25 03:07:14;;;;;;;7.82;5.85;;;16.70;99.90;;;;;;2065048;28;20041;-70
2021/09/25 03:08:14;;;;;;;8.90;5.55;;;16.70;99.90;;;;;;2064032;28;20022;-70
2021/09/25 03:09:15;;;;;;;7.50;6.03;;;16.70;99.90;;;;;;2064868;28;20109;-70
2021/09/25 03:10:15;;;;;;;7.90;5.88;;;16.70;99.90;;;;;;2064698;28;20023;-70
2021/09/25 03:11:16;;;;;;;7.28;5.85;;;16.80;99.90;;;;;;2068513;28;20105;-70
2021/09/25 03:12:17;;;;;;;6.97;6.22;;;16.70;99.90;;;;;;2065155;28;20061;-70
2021/09/25 03:13:17;;;;;;;6.72;6.05;;;16.80;99.90;;;;;;2067663;28;20022;-70
2021/09/25 03:14:18;;;;;;;6.50;5.90;;;16.80;99.90;;;;;;2067935;28;20028;-70
2021/09/25 03:15:18;;;;;;;7.88;6.55;;;16.80;99.90;;;;;;2067592;28;20033;-70
2021/09/25 03:16:19;;;;;;;7.65;5.78;;;16.80;99.90;;;;;;2064683;28;20026;-70
2021/09/25 03:17:19;;;;;;;8.73;6.22;;;16.80;99.90;;;;;;2064618;28;20049;-70
2021/09/25 03:18:20;;;;;;;6.65;5.57;;;16.80;99.90;;;;;;2067461;28;20022;-70
2021/09/25 03:19:20;;;;;;;7.22;6.43;;;16.80;99.90;;;;;;2072877;28;20068;-70
2021/09/25 03:20:21;;;;;;;10.77;6.15;;;16.80;99.90;;;;;;2072799;28;20045;-70
2021/09/25 03:21:21;;;;;;;8.30;6.10;;;16.80;99.90;;;;;;2071235;28;20459;-70
2021/09/25 03:22:22;;;;;;;6.15;5.57;;;16.80;99.90;;;;;;2065771;28;20049;-70
2021/09/25 03:23:23;;;;;;;6.60;5.95;;;16.80;99.90;;;;;;2064600;28;20029;-70
2021/09/25 03:24:24;;;;;;;8.35;5.95;;;16.90;99.90;;;;;;2064394;28;20023;-70
2021/09/25 03:25:24;;;;;;;6.72;6.03;;;16.80;99.90;;;;;;2063957;28;20030;-70
2021/09/25 03:26:25;;;;;;;7.13;5.80;;;16.80;99.90;;;;;;2064036;28;20452;-70
2021/09/25 03:27:26;;;;;;;7.72;5.32;;;16.80;99.90;;;;;;2064776;28;20042;-70
2021/09/25 03:28:27;;;;;;;6.45;5.70;;;16.80;99.90;;;;;;2063972;28;20443;-70
2021/09/25 03:29:27;;;;;;;8.20;5.70;;;16.80;99.90;;;;;;2064703;28;20037;-70
2021/09/25 03:30:28;;;;;;;7.18;5.85;;;16.80;99.90;;;;;;2064637;28;20037;-70
2021/09/25 03:31:29;;;;;;;7.60;6.38;;;16.80;99.90;;;;;;2065927;28;20030;-70
2021/09/25 03:32:29;;;;;;;6.70;6.00;;;16.80;99.90;;;;;;2072834;28;20034;-70
2021/09/25 03:33:30;;;;;;;7.32;6.13;;;16.90;99.90;;;;;;2072750;28;20037;-70
2021/09/25 03:34:30;;;;;;;7.35;6.40;;;16.90;99.90;;;;;;2069067;28;20026;-70
2021/09/25 03:35:31;;;;;;;7.38;5.88;;;16.80;99.90;;;;;;2063798;28;20037;-70
2021/09/25 03:36:32;;;;;;;7.57;6.05;;;16.90;99.90;;;;;;2064334;28;20031;-69
2021/09/25 03:37:33;;;;;;;8.65;6.10;;;16.90;99.90;;;;;;2064452;28;20034;-70
2021/09/25 03:38:33;;;;;;;7.40;5.70;;;16.90;99.90;;;;;;2064208;28;20034;-70
2021/09/25 03:39:34;;;;;;;7.30;6.28;;;16.90;99.90;;;;;;2064278;28;20030;-70
2021/09/25 03:40:34;;;;;;;6.88;5.97;;;16.90;99.90;;;;;;2064673;28;20118;-70
2021/09/25 03:41:36;;;;;;;10.10;6.32;;;16.90;99.90;;;;;;2066540;28;20604;-70
2021/09/25 03:42:36;;;;;;;6.07;5.40;;;16.80;99.90;;;;;;2072479;28;20018;-70
2021/09/25 03:43:37;;;;;;;6.97;6.20;;;16.90;99.90;;;;;;2072573;28;20092;-70
2021/09/25 03:44:37;;;;;;;7.60;6.22;;;16.90;99.90;;;;;;2066943;28;20023;-70
2021/09/25 03:45:38;;;;;;;8.88;6.10;;;16.90;99.90;;;;;;2064177;28;20038;-70
2021/09/25 03:46:39;;;;;;;6.60;5.75;;;17.00;99.90;;;;;;2064624;28;20029;-69
2021/09/25 03:47:39;;;;;;;8.73;5.90;;;17.00;99.90;;;;;;2064466;28;20039;-70
2021/09/25 03:48:40;;;;;;;7.22;6.00;;;17.00;99.90;;;;;;2064137;28;20027;-70
2021/09/25 03:49:41;;;;;;;7.13;5.97;;;16.90;99.90;;;;;;2072163;28;20029;-70
2021/09/25 03:50:41;;;;;;;6.78;6.07;;;16.90;99.90;;;;;;2072650;28;20111;-70
2021/09/25 03:51:42;;;;;;;8.38;6.25;;;17.00;99.90;;;;;;2069563;28;20096;-70
2021/09/25 03:52:43;;;;;;;7.35;5.80;;;16.90;99.90;;;;;;2064008;28;20084;-70
2021/09/25 03:53:43;;;;;;;8.10;5.47;;;17.00;99.90;;;;;;2064446;28;20041;-70
2021/09/25 03:54:44;;;;;;;9.30;6.13;;;17.00;99.90;;;;;;2064352;28;20119;-70
2021/09/25 03:55:44;;;;;;;9.75;5.80;;;16.90;99.90;;;;;;2064276;28;20041;-70
2021/09/25 03:56:45;;;;;;;9.30;6.38;;;17.00;99.90;;;;;;2064544;28;20022;-70
2021/09/25 03:57:45;;;;;;;7.78;5.85;;;17.00;99.90;;;;;;2064602;28;20549;-70
2021/09/25 03:58:46;;;;;;;6.78;6.05;;;17.00;99.90;;;;;;2063851;28;20056;-69
2021/09/25 03:59:47;;;;;;;8.85;5.82;;;17.00;99.90;;;;;;2071233;28;20394;-70
2021/09/25 04:00:47;;;;;;;9.95;5.88;;;17.00;99.90;;;;;;2066764;28;20030;-70
2021/09/25 04:01:48;;;;;;;6.93;5.60;;;17.00;99.90;;;;;;2067479;28;20018;-70
2021/09/25 04:02:50;;;;;;;6.55;5.53;;;17.00;99.90;;;;;;2072290;28;20108;-70
2021/09/25 04:03:51;;;;;;;7.20;5.47;;;17.00;99.90;;;;;;2068356;28;20031;-70
2021/09/25 04:04:51;;;;;;;8.18;6.40;;;17.00;99.90;;;;;;2064315;28;20081;-70
2021/09/25 04:05:52;;;;;;;7.30;6.25;;;17.00;99.90;;;;;;2064426;28;20584;-70
2021/09/25 04:06:52;;;;;;;8.52;5.45;;;17.00;99.90;;;;;;2066496;28;20109;-70
2021/09/25 04:07:53;;;;;;;7.22;5.85;;;17.00;99.90;;;;;;2071095;28;20029;-70
2021/09/25 04:08:54;;;;;;;9.38;5.63;;;17.00;99.90;;;;;;2063528;28;20093;-70
2021/09/25 04:09:54;;;;;;;6.70;5.55;;;17.00;99.90;;;;;;2064449;28;20069;-70
2021/09/25 04:10:55;;;;;;;10.32;6.13;;;17.00;99.90;;;;;;2064335;28;20026;-69
2021/09/25 04:11:56;;;;;;;7.95;5.50;;;17.00;99.90;;;;;;2064385;28;20033;-70
2021/09/25 04:12:56;;;;;;;13.25;6.15;;;17.00;99.90;;;;;;2064126;28;20096;-70
2021/09/25 04:13:57;;;;;;;8.20;6.03;;;17.00;99.90;;;;;;2064281;28;20050;-70
2021/09/25 04:14:57;;;;;;;6.55;5.88;;;17.00;99.90;;;;;;2064188;28;20105;-70
2021/09/25 04:15:58;;;;;;;7.32;5.10;;;17.00;99.90;;;;;;2064418;28;21054;-70
2021/09/25 04:16:58;;;;;;;6.18;5.38;;;17.10;99.90;;;;;;2063374;28;20023;-70
2021/09/25 04:17:59;;;;;;;7.80;5.38;;;17.10;99.90;;;;;;2063522;28;20023;-70
2021/09/25 04:19:00;;;;;;;6.72;5.45;;;17.10;99.90;;;;;;2071547;28;20108;-70
2021/09/25 04:20:00;;;;;;;7.18;5.13;;;17.10;99.90;;;;;;2072287;28;20026;-70
2021/09/25 04:21:01;;;;;;;6.00;5.13;;;17.10;99.90;;;;;;2072198;28;20396;-69
2021/09/25 04:22:01;;;;;;;7.45;5.93;;;17.10;99.90;;;;;;2072589;28;20022;-70
2021/09/25 04:23:02;;;;;;;7.85;6.50;;;17.10;99.90;;;;;;2071798;28;20028;-69
2021/09/25 04:24:03;;;;;;;6.40;5.35;;;17.10;99.90;;;;;;2071452;28;20510;-70
2021/09/25 04:25:04;;;;;;;7.93;6.28;;;17.10;99.90;;;;;;2071712;28;20026;-70
2021/09/25 04:26:05;;;;;;;10.20;6.40;;;17.10;99.90;;;;;;2071674;28;20040;-70
2021/09/25 04:27:05;;;;;;;8.57;6.88;;;17.10;99.90;;;;;;2071675;28;20041;-70
2021/09/25 04:28:07;;;;;;;9.10;7.38;;;17.10;99.90;;;;;;2070866;28;20385;-70
2021/09/25 04:29:08;;;;;;;8.73;6.35;;;17.10;99.90;;;;;;2063219;28;20026;-70
2021/09/25 04:30:09;;;;;;;8.30;6.90;;;17.10;99.90;;;;;;2063298;28;20491;-69
2021/09/25 04:31:10;;;;;;;7.68;6.65;;;17.10;99.90;;;;;;2063932;28;20027;-69
2021/09/25 04:32:10;;;;;;;8.23;6.88;;;17.10;99.90;;;;;;2064283;28;20526;-69
2021/09/25 04:33:11;;;;;;;9.52;6.72;;;17.10;99.90;;;;;;2064127;28;20479;-70
2021/09/25 04:34:13;;;;;;;10.45;7.85;;;17.10;99.90;;;;;;2064258;28;20058;-69
2021/09/25 04:35:13;;;;;;;10.30;6.85;;;17.10;99.90;;;;;;2064116;28;20455;-69
2021/09/25 04:36:14;;;;;;;10.02;6.70;;;17.10;99.90;;;;;;2064234;28;20352;-70
2021/09/25 04:37:14;;;;;;;7.32;6.45;;;17.20;99.90;;;;;;2064199;28;20018;-69
2021/09/25 04:38:15;;;;;;;9.07;7.65;;;17.10;99.90;;;;;;2064642;28;20018;-69
2021/09/25 04:39:15;;;;;;;12.35;7.85;;;17.10;99.90;;;;;;2071440;28;20411;-69
2021/09/25 04:40:16;;;;;;;9.77;7.05;;;17.10;99.90;;;;;;2071775;28;20028;-69
2021/09/25 04:41:16;;;;;;;8.13;7.07;;;17.10;99.90;;;;;;2063958;28;20080;-69
2021/09/25 04:42:18;;;;;;;8.55;7.65;;;17.10;99.90;;;;;;2063888;28;20018;-69
2021/09/25 04:43:18;;;;;;;8.52;6.95;;;17.10;99.90;;;;;;2063982;28;20018;-69
2021/09/25 04:44:19;;;;;;;9.30;7.30;;;17.20;99.90;;;;;;2064039;28;20014;-69
2021/09/25 04:45:20;;;;;;;9.43;7.28;;;17.20;99.90;;;;;;2064110;28;20625;-69
2021/09/25 04:46:20;;;;;;;10.73;8.52;;;17.10;99.90;;;;;;2063928;28;20362;-69
2021/09/25 04:47:21;;;;;;;7.93;6.97;;;17.10;99.90;;;;;;2064306;28;20101;-69
2021/09/25 04:48:22;;;;;;;11.35;7.65;;;17.20;99.90;;;;;;2065884;28;20711;-69
2021/09/25 04:49:22;;;;;;;7.97;7.18;;;17.20;99.90;;;;;;2071988;28;20101;-69
2021/09/25 04:50:28;;;;;;;9.80;6.97;;;17.20;99.90;;;;;;2071709;28;20101;-69
2021/09/25 04:51:29;;;;;;;9.27;6.97;;;17.20;99.90;;;;;;2079702;28;20064;-70
2021/09/25 04:52:29;;;;;;;11.85;8.65;;;17.20;99.90;;;;;;2079701;28;20021;-69
2021/09/25 04:53:30;;;;;;;9.82;7.15;;;17.20;99.90;;;;;;2072198;28;20026;-69
2021/09/25 04:54:31;;;;;;;8.63;6.70;;;17.20;99.90;;;;;;2071921;28;20022;-69
2021/09/25 04:55:31;;;;;;;7.78;6.97;;;17.20;99.90;;;;;;2072195;28;20038;-69
2021/09/25 04:56:32;;;;;;;9.73;7.10;;;17.20;99.90;;;;;;2071923;28;20091;-69
2021/09/25 04:57:33;;;;;;;8.60;7.45;;;17.20;99.90;;;;;;2065481;28;20046;-69
2021/09/25 04:58:34;;;;;;;9.18;7.15;;;17.20;99.90;;;;;;2067042;28;20033;-69
2021/09/25 04:59:34;;;;;;;9.70;7.43;;;17.20;99.90;;;;;;2072420;28;20037;-69
2021/09/25 05:00:35;;;;;;;11.00;7.18;;;17.20;99.90;;;;;;2067442;28;20038;-69
2021/09/25 05:01:36;;;;;;;8.98;6.97;;;17.20;99.90;;;;;;2063896;28;20084;-69
2021/09/25 05:02:36;;;;;;;9.13;7.13;;;17.20;99.90;;;;;;2071231;28;20116;-70
2021/09/25 05:03:37;;;;;;;8.32;7.43;;;17.20;99.90;;;;;;2071559;28;20022;-70
2021/09/25 05:04:37;;;;;;;9.55;7.15;;;17.20;99.90;;;;;;2063902;28;20113;-70
2021/09/25 05:05:38;;;;;;;11.80;7.82;;;17.20;99.90;;;;;;2063678;28;20022;-69
2021/09/25 05:06:38;;;;;;;8.05;7.25;;;17.30;99.90;;;;;;2063828;28;20033;-70
2021/09/25 05:07:39;;;;;;;8.57;6.95;;;17.20;99.90;;;;;;2063871;28;20028;-69
2021/09/25 05:08:40;;;;;;;10.60;6.65;;;17.20;99.90;;;;;;2063386;28;20031;-69
2021/09/25 05:09:40;;;;;;;8.57;7.07;;;17.20;99.90;;;;;;2063770;28;20057;-70
2021/09/25 05:10:41;;;;;;;8.88;6.63;;;17.20;99.90;;;;;;2063579;28;20027;-70
2021/09/25 05:11:41;;;;;;;8.55;6.28;;;17.20;99.90;;;;;;2063952;28;20038;-69
2021/09/25 05:12:42;;;;;;;7.63;6.00;;;17.20;99.90;;;;;;2063356;28;20038;-69
2021/09/25 05:13:43;;;;;;;8.35;6.55;;;17.30;99.90;;;;;;2063926;28;20066;-69
2021/09/25 05:14:43;;;;;;;7.47;6.68;;;17.20;99.90;;;;;;2063743;28;20027;-70
2021/09/25 05:15:44;;;;;;;7.00;6.18;;;17.20;99.90;;;;;;2063732;28;20022;-69